sensor_id;sensor_type;location;lat;lon;timestamp;pressure;altitude;pressure_sealevel;temperature;humidity
71057;BME280;58380;48.312;9.246;2023-03-14T06:55:37;91755.75;;;4.64;100.00
71057;BME280;58380;48.312;9.246;2023-03-14T06:58:03;91758.34;;;4.64;100.00
71057;BME280;58380;48.312;9.246;2023-03-14T07:00:28;91758.81;;;4.71;100.00
71057;BME280;58380;48.312;9.246;2023-03-14T07:02:54;91738.72;;;4.62;100.00
71057;BME280;58380;48.312;9.246;2023-03-14T07:05:19;91764.06;;;4.71;100.00
71057;BME280;58380;48.312;9.246;2023-03-14T07:07:44;91733.25;;;4.63;100.00
71057;BME280;58380;48.312;9.246;2023-03-14T07:10:10;91764.81;;;4.82;100.00
71057;BME280;58380;48.312;9.246;2023-03-14T07:12:36;91730.63;;;4.63;100.00
71057;BME280;58380;48.312;9.246;2023-03-14T07:15:01;91728.53;;;4.70;100.00
71057;BME280;58380;48.312;9.246;2023-03-14T07:17:27;91753.03;;;4.85;100.00
71057;BME280;58380;48.312;9.246;2023-03-14T07:19:52;91769.69;;;4.99;100.00
71057;BME280;58380;48.312;9.246;2023-03-14T07:22:18;91749.88;;;4.88;100.00
71057;BME280;58380;48.312;9.246;2023-03-14T07:24:43;91773.84;;;5.05;100.00
71057;BME280;58380;48.312;9.246;2023-03-14T07:27:09;91777.47;;;5.14;100.00
71057;BME280;58380;48.312;9.246;2023-03-14T07:29:34;91753.44;;;5.07;100.00
71057;BME280;58380;48.312;9.246;2023-03-14T07:31:59;91763.56;;;5.24;100.00
71057;BME280;58380;48.312;9.246;2023-03-14T07:34:29;91739.47;;;5.27;100.00
71057;BME280;58380;48.312;9.246;2023-03-14T07:36:54;91756.09;;;5.47;100.00
71057;BME280;58380;48.312;9.246;2023-03-14T07:39:20;91778.75;;;5.61;99.36
71057;BME280;58380;48.312;9.246;2023-03-14T07:41:45;91765.19;;;5.59;99.86
71057;BME280;58380;48.312;9.246;2023-03-14T07:44:11;91765.19;;;5.59;97.92
71057;BME280;58380;48.312;9.246;2023-03-14T07:46:36;91803.44;;;5.95;98.18
71057;BME280;58380;48.312;9.246;2023-03-14T07:49:02;91783.00;;;5.97;97.54
71057;BME280;58380;48.312;9.246;2023-03-14T07:51:27;91797.25;;;6.15;97.81
71057;BME280;58380;48.312;9.246;2023-03-14T07:53:53;91818.53;;;6.37;97.15
71057;BME280;58380;48.312;9.246;2023-03-14T07:56:18;91799.91;;;6.39;95.92
71057;BME280;58380;48.312;9.246;2023-03-14T07:58:44;91793.31;;;6.46;95.53
71057;BME280;58380;48.312;9.246;2023-03-14T08:01:09;91812.53;;;6.61;94.99
71057;BME280;58380;48.312;9.246;2023-03-14T08:03:34;91771.97;;;6.53;94.65
71057;BME280;58380;48.312;9.246;2023-03-14T08:06:00;91787.22;;;6.99;98.40
71057;BME280;58380;48.312;9.246;2023-03-14T08:08:25;91767.41;;;6.88;92.15
71057;BME280;58380;48.312;9.246;2023-03-14T08:10:51;91814.50;;;7.22;91.50
71057;BME280;58380;48.312;9.246;2023-03-14T08:13:16;91806.63;;;7.22;91.59
71057;BME280;58380;48.312;9.246;2023-03-14T08:15:42;91838.13;;;7.41;88.86
71057;BME280;58380;48.312;9.246;2023-03-14T08:18:07;91806.00;;;7.30;92.62
71057;BME280;58380;48.312;9.246;2023-03-14T08:20:33;91792.94;;;7.25;92.49
71057;BME280;58380;48.312;9.246;2023-03-14T08:23:00;91785.63;;;7.22;92.67
71057;BME280;58380;48.312;9.246;2023-03-14T08:25:27;91818.56;;;7.52;91.18
71057;BME280;58380;48.312;9.246;2023-03-14T08:27:53;91828.72;;;7.59;91.19
71057;BME280;58380;48.312;9.246;2023-03-14T08:30:21;91826.88;;;7.60;90.69
71057;BME280;58380;48.312;9.246;2023-03-14T08:32:47;91826.31;;;7.63;88.07
71057;BME280;58380;48.312;9.246;2023-03-14T08:35:13;91817.50;;;7.72;84.28
71057;BME280;58380;48.312;9.246;2023-03-14T08:37:39;91814.03;;;7.77;84.54
71057;BME280;58380;48.312;9.246;2023-03-14T08:40:05;91835.69;;;7.88;85.28
71057;BME280;58380;48.312;9.246;2023-03-14T08:42:35;91814.97;;;7.86;83.29
71057;BME280;58380;48.312;9.246;2023-03-14T08:45:02;91785.53;;;7.51;82.02
71057;BME280;58380;48.312;9.246;2023-03-14T08:47:29;91767.69;;;7.48;81.10
71057;BME280;58380;48.312;9.246;2023-03-14T08:49:54;91843.78;;;7.91;82.51
71057;BME280;58380;48.312;9.246;2023-03-14T08:52:20;91845.69;;;7.86;82.06
71057;BME280;58380;48.312;9.246;2023-03-14T08:54:46;91826.59;;;7.80;84.00
71057;BME280;58380;48.312;9.246;2023-03-14T08:57:11;91802.84;;;7.71;84.55
71057;BME280;58380;48.312;9.246;2023-03-14T08:59:37;91810.25;;;7.83;85.10
71057;BME280;58380;48.312;9.246;2023-03-14T09:02:03;91823.31;;;7.88;82.33
71057;BME280;58380;48.312;9.246;2023-03-14T09:04:30;91842.84;;;8.01;81.44
71057;BME280;58380;48.312;9.246;2023-03-14T09:06:56;91843.91;;;8.00;81.49
71057;BME280;58380;48.312;9.246;2023-03-14T09:12:05;91861.56;;;8.32;80.75
71057;BME280;58380;48.312;9.246;2023-03-14T09:14:39;91808.06;;;8.09;79.61
71057;BME280;58380;48.312;9.246;2023-03-14T09:17:10;91859.59;;;8.43;80.09
71057;BME280;58380;48.312;9.246;2023-03-14T09:26:33;91841.22;;;8.05;76.10
71057;BME280;58380;48.312;9.246;2023-03-14T09:29:07;91809.97;;;7.66;77.79
71057;BME280;58380;48.312;9.246;2023-03-14T09:31:33;91805.53;;;7.66;78.84
71057;BME280;58380;48.312;9.246;2023-03-14T09:34:00;91874.38;;;8.20;77.69
71057;BME280;58380;48.312;9.246;2023-03-14T09:36:26;91763.94;;;7.35;79.57
71057;BME280;58380;48.312;9.246;2023-03-14T09:38:52;91815.31;;;7.61;79.75
71057;BME280;58380;48.312;9.246;2023-03-14T09:41:27;91811.34;;;7.44;80.50
71057;BME280;58380;48.312;9.246;2023-03-14T09:44:15;91683.38;;;6.55;81.28
71057;BME280;58380;48.312;9.246;2023-03-14T09:46:48;91831.19;;;7.50;82.11
71057;BME280;58380;48.312;9.246;2023-03-14T09:49:28;91874.03;;;7.89;85.23
71057;BME280;58380;48.312;9.246;2023-03-14T09:51:58;91809.56;;;7.40;86.59
71057;BME280;58380;48.312;9.246;2023-03-14T09:54:32;91851.16;;;7.51;89.23
71057;BME280;58380;48.312;9.246;2023-03-14T09:57:33;91883.69;;;7.74;91.21
71057;BME280;58380;48.312;9.246;2023-03-14T10:00:05;91855.47;;;7.61;92.70
71057;BME280;58380;48.312;9.246;2023-03-14T10:02:41;91866.00;;;7.80;92.26
71057;BME280;58380;48.312;9.246;2023-03-14T10:05:17;91851.16;;;7.51;91.23
71057;BME280;58380;48.312;9.246;2023-03-14T10:07:44;91779.44;;;7.13;92.91
71057;BME280;58380;48.312;9.246;2023-03-14T10:12:46;91802.22;;;7.18;90.41
71057;BME280;58380;48.312;9.246;2023-03-14T10:15:14;91847.19;;;7.54;90.75
71057;BME280;58380;48.312;9.246;2023-03-14T10:17:50;91866.19;;;7.65;89.83
71057;BME280;58380;48.312;9.246;2023-03-14T10:22:58;91861.28;;;7.58;89.73
71057;BME280;58380;48.312;9.246;2023-03-14T10:25:35;91869.19;;;7.77;88.97
71057;BME280;58380;48.312;9.246;2023-03-14T10:28:05;91849.75;;;7.59;89.39
71057;BME280;58380;48.312;9.246;2023-03-14T10:30:48;91878.44;;;7.74;89.47
71057;BME280;58380;48.312;9.246;2023-03-14T10:33:21;91878.28;;;7.85;89.38
71057;BME280;58380;48.312;9.246;2023-03-14T10:35:55;91871.97;;;7.86;87.85
71057;BME280;58380;48.312;9.246;2023-03-14T10:38:25;91870.19;;;7.81;85.98
71057;BME280;58380;48.312;9.246;2023-03-14T10:40:56;91852.22;;;7.69;86.68
71057;BME280;58380;48.312;9.246;2023-03-14T10:43:26;91891.28;;;7.95;86.52
71057;BME280;58380;48.312;9.246;2023-03-14T10:46:09;91898.97;;;7.91;86.43
71057;BME280;58380;48.312;9.246;2023-03-14T10:48:39;91870.59;;;7.88;87.21
71057;BME280;58380;48.312;9.246;2023-03-14T10:53:43;91883.13;;;7.96;84.97
71057;BME280;58380;48.312;9.246;2023-03-14T10:56:21;91863.66;;;7.78;85.88
71057;BME280;58380;48.312;9.246;2023-03-14T10:58:52;91896.44;;;7.81;85.38
71057;BME280;58380;48.312;9.246;2023-03-14T11:07:48;91906.56;;;7.50;89.76
71057;BME280;58380;48.312;9.246;2023-03-14T11:10:26;91864.34;;;7.22;92.95
71057;BME280;58380;48.312;9.246;2023-03-14T11:16:16;91907.78;;;7.33;95.23
71057;BME280;58380;48.312;9.246;2023-03-14T11:19:03;91925.38;;;7.33;98.25
71057;BME280;58380;48.312;9.246;2023-03-14T11:27:44;91925.13;;;7.05;100.00
71057;BME280;58380;48.312;9.246;2023-03-14T11:30:28;91926.78;;;6.96;99.76
71057;BME280;58380;48.312;9.246;2023-03-14T11:34:12;91934.44;;;6.93;99.01
71057;BME280;58380;48.312;9.246;2023-03-14T11:36:46;91934.94;;;6.95;100.00
71057;BME280;58380;48.312;9.246;2023-03-14T11:39:19;91924.09;;;6.77;99.28
71057;BME280;58380;48.312;9.246;2023-03-14T11:41:47;91923.75;;;6.84;100.00
71057;BME280;58380;48.312;9.246;2023-03-14T11:44:20;91945.50;;;6.89;100.00
71057;BME280;58380;48.312;9.246;2023-03-14T11:47:01;91924.22;;;6.62;99.95
71057;BME280;58380;48.312;9.246;2023-03-14T11:49:38;91929.94;;;6.64;100.00
71057;BME280;58380;48.312;9.246;2023-03-14T11:52:15;91916.66;;;6.55;100.00
71057;BME280;58380;48.312;9.246;2023-03-14T11:54:52;91948.25;;;6.74;100.00
71057;BME280;58380;48.312;9.246;2023-03-14T11:57:24;91930.41;;;6.71;100.00
71057;BME280;58380;48.312;9.246;2023-03-14T12:02:55;91939.47;;;6.84;100.00
71057;BME280;58380;48.312;9.246;2023-03-14T12:08:37;91934.94;;;6.95;100.00
71057;BME280;58380;48.312;9.246;2023-03-14T12:14:27;91922.84;;;6.69;100.00
71057;BME280;58380;48.312;9.246;2023-03-14T12:16:57;91958.41;;;6.81;100.00
71057;BME280;58380;48.312;9.246;2023-03-14T12:19:31;91959.84;;;6.63;98.87
71057;BME280;58380;48.312;9.246;2023-03-14T12:24:51;91926.56;;;6.24;99.29
71057;BME280;58380;48.312;9.246;2023-03-14T12:30:24;91973.44;;;6.31;99.25
71057;BME280;58380;48.312;9.246;2023-03-14T12:35:43;91952.00;;;6.23;100.00
71057;BME280;58380;48.312;9.246;2023-03-14T12:38:15;92005.13;;;6.39;100.00
71057;BME280;58380;48.312;9.246;2023-03-14T12:41:13;92003.88;;;6.26;100.00
71057;BME280;58380;48.312;9.246;2023-03-14T12:43:42;92011.78;;;6.16;100.00
71057;BME280;58380;48.312;9.246;2023-03-14T12:48:44;92032.69;;;5.36;100.00
71057;BME280;58380;48.312;9.246;2023-03-14T12:51:16;92085.28;;;5.09;96.84
71057;BME280;58380;48.312;9.246;2023-03-14T12:59:59;92100.50;;;4.03;94.33
71057;BME280;58380;48.312;9.246;2023-03-14T13:02:43;92112.75;;;3.97;95.57
71057;BME280;58380;48.312;9.246;2023-03-14T13:05:16;92120.38;;;4.19;96.08
71057;BME280;58380;48.312;9.246;2023-03-14T13:10:22;92150.50;;;4.32;96.31
71057;BME280;58380;48.312;9.246;2023-03-14T13:13:37;92152.63;;;4.40;96.29
71057;BME280;58380;48.312;9.246;2023-03-14T13:15:56;92129.59;;;4.27;96.31
71057;BME280;58380;48.312;9.246;2023-03-14T13:18:36;92143.44;;;4.27;95.43
71057;BME280;58380;48.312;9.246;2023-03-14T13:21:11;92175.34;;;4.40;94.68
71057;BME280;58380;48.312;9.246;2023-03-14T13:23:40;92187.38;;;4.46;97.13
71057;BME280;58380;48.312;9.246;2023-03-14T13:26:11;92184.19;;;4.33;95.01
71057;BME280;58380;48.312;9.246;2023-03-14T13:28:39;92189.88;;;4.20;93.87
71057;BME280;58380;48.312;9.246;2023-03-14T13:31:23;92210.06;;;4.35;93.48
71057;BME280;58380;48.312;9.246;2023-03-14T13:33:59;92180.94;;;4.11;93.78
71057;BME280;58380;48.312;9.246;2023-03-14T13:36:31;92196.19;;;4.24;93.42
71057;BME280;58380;48.312;9.246;2023-03-14T13:38:58;92169.63;;;3.95;93.00
71057;BME280;58380;48.312;9.246;2023-03-14T13:41:27;92225.97;;;4.33;91.87
71057;BME280;58380;48.312;9.246;2023-03-14T13:44:01;92242.22;;;4.41;90.88
71057;BME280;58380;48.312;9.246;2023-03-14T13:46:33;92245.50;;;4.21;92.07
71057;BME280;58380;48.312;9.246;2023-03-14T13:49:05;92252.59;;;4.25;92.75
71057;BME280;58380;48.312;9.246;2023-03-14T13:51:38;92250.16;;;4.14;93.38
71057;BME280;58380;48.312;9.246;2023-03-14T13:54:14;92269.78;;;4.21;94.93
71057;BME280;58380;48.312;9.246;2023-03-14T13:56:40;92270.56;;;4.22;94.03
71057;BME280;58380;48.312;9.246;2023-03-14T13:59:23;92284.16;;;4.24;93.96
71057;BME280;58380;48.312;9.246;2023-03-14T14:01:50;92284.53;;;4.38;92.11
71057;BME280;58380;48.312;9.246;2023-03-14T14:04:19;92290.09;;;4.57;90.95
71057;BME280;58380;48.312;9.246;2023-03-14T14:06:52;92191.13;;;4.07;90.37
71057;BME280;58380;48.312;9.246;2023-03-14T14:09:24;92292.25;;;4.65;87.86
71057;BME280;58380;48.312;9.246;2023-03-14T14:12:08;92283.56;;;4.54;88.05
71057;BME280;58380;48.312;9.246;2023-03-14T14:14:49;92307.41;;;4.63;87.04
71057;BME280;58380;48.312;9.246;2023-03-14T14:17:38;92311.56;;;4.59;84.43
71057;BME280;58380;48.312;9.246;2023-03-14T14:20:37;92320.75;;;4.66;86.84
71057;BME280;58380;48.312;9.246;2023-03-14T14:23:21;92325.75;;;4.73;84.81
71057;BME280;58380;48.312;9.246;2023-03-14T14:25:55;92348.38;;;5.00;80.66
71057;BME280;58380;48.312;9.246;2023-03-14T14:31:06;92346.81;;;5.04;81.07
71057;BME280;58380;48.312;9.246;2023-03-14T14:33:55;92352.94;;;5.30;80.67
71057;BME280;58380;48.312;9.246;2023-03-14T14:39:19;92377.94;;;5.00;77.99
71057;BME280;58380;48.312;9.246;2023-03-14T14:41:48;92383.31;;;4.83;80.09
71057;BME280;58380;48.312;9.246;2023-03-14T14:44:21;92361.66;;;4.45;76.98
71057;BME280;58380;48.312;9.246;2023-03-14T14:46:55;92387.00;;;4.45;78.03
71057;BME280;58380;48.312;9.246;2023-03-14T14:49:28;92338.72;;;4.15;78.87
71057;BME280;58380;48.312;9.246;2023-03-14T14:52:03;92389.84;;;4.43;78.19
71057;BME280;58380;48.312;9.246;2023-03-14T14:54:57;92398.94;;;4.36;79.28
71057;BME280;58380;48.312;9.246;2023-03-14T14:57:26;92402.59;;;4.35;78.89
71057;BME280;58380;48.312;9.246;2023-03-14T15:00:00;92405.41;;;4.28;76.61
71057;BME280;58380;48.312;9.246;2023-03-14T15:02:38;92397.19;;;4.14;76.99
71057;BME280;58380;48.312;9.246;2023-03-14T15:05:21;92429.91;;;4.22;76.38
71057;BME280;58380;48.312;9.246;2023-03-14T15:07:48;92407.00;;;4.02;74.75
71057;BME280;58380;48.312;9.246;2023-03-14T15:10:17;92444.00;;;4.21;75.17
71057;BME280;58380;48.312;9.246;2023-03-14T15:12:44;92440.94;;;4.29;74.82
71057;BME280;58380;48.312;9.246;2023-03-14T15:15:11;92436.00;;;4.32;77.40
71057;BME280;58380;48.312;9.246;2023-03-14T15:17:37;92443.47;;;4.88;74.62
71057;BME280;58380;48.312;9.246;2023-03-14T15:20:04;92447.31;;;5.13;71.68
71057;BME280;58380;48.312;9.246;2023-03-14T15:22:31;92455.69;;;5.15;70.43
71057;BME280;58380;48.312;9.246;2023-03-14T15:24:56;92440.88;;;4.88;69.93
71057;BME280;58380;48.312;9.246;2023-03-14T15:27:22;92447.88;;;4.78;69.71
71057;BME280;58380;48.312;9.246;2023-03-14T15:29:47;92429.34;;;4.84;67.65
71057;BME280;58380;48.312;9.246;2023-03-14T15:32:14;92435.28;;;4.69;67.05
71057;BME280;58380;48.312;9.246;2023-03-14T15:34:41;92420.47;;;4.48;67.34
71057;BME280;58380;48.312;9.246;2023-03-14T15:37:15;92464.84;;;5.12;64.23
71057;BME280;58380;48.312;9.246;2023-03-14T15:39:45;92461.59;;;5.43;63.43
71057;BME280;58380;48.312;9.246;2023-03-14T15:42:11;92454.34;;;5.60;62.91
71057;BME280;58380;48.312;9.246;2023-03-14T15:44:36;92460.91;;;5.68;62.07
71057;BME280;58380;48.312;9.246;2023-03-14T15:47:02;92444.03;;;5.38;60.34
71057;BME280;58380;48.312;9.246;2023-03-14T15:49:28;92484.94;;;5.07;61.46
71057;BME280;58380;48.312;9.246;2023-03-14T15:51:54;92460.72;;;4.84;63.31
71057;BME280;58380;48.312;9.246;2023-03-14T15:54:19;92435.97;;;4.60;63.32
71057;BME280;58380;48.312;9.246;2023-03-14T15:56:45;92373.72;;;4.57;63.48
71057;BME280;58380;48.312;9.246;2023-03-14T15:59:10;92466.41;;;5.71;62.03
71057;BME280;58380;48.312;9.246;2023-03-14T16:01:36;92460.28;;;5.40;61.50
71057;BME280;58380;48.312;9.246;2023-03-14T16:04:02;92504.19;;;5.33;61.32
71057;BME280;58380;48.312;9.246;2023-03-14T16:06:28;92498.66;;;4.87;63.23
71057;BME280;58380;48.312;9.246;2023-03-14T16:08:54;92499.56;;;4.70;63.34
71057;BME280;58380;48.312;9.246;2023-03-14T16:11:20;92510.16;;;4.59;64.31
71057;BME280;58380;48.312;9.246;2023-03-14T16:13:45;92511.97;;;4.53;65.66
71057;BME280;58380;48.312;9.246;2023-03-14T16:16:11;92504.81;;;4.43;64.65
71057;BME280;58380;48.312;9.246;2023-03-14T16:18:40;92515.03;;;4.45;67.15
71057;BME280;58380;48.312;9.246;2023-03-14T16:21:24;92515.25;;;4.43;65.29
71057;BME280;58380;48.312;9.246;2023-03-14T16:23:50;92520.22;;;4.40;65.92
71057;BME280;58380;48.312;9.246;2023-03-14T16:26:18;92528.22;;;4.33;66.69
71057;BME280;58380;48.312;9.246;2023-03-14T16:28:45;92523.75;;;4.28;65.89
71057;BME280;58380;48.312;9.246;2023-03-14T16:31:14;92514.53;;;4.21;66.87
71057;BME280;58380;48.312;9.246;2023-03-14T16:33:41;92503.38;;;4.03;66.70
71057;BME280;58380;48.312;9.246;2023-03-14T16:36:10;92477.38;;;3.92;65.43
71057;BME280;58380;48.312;9.246;2023-03-14T16:38:39;92531.25;;;4.20;65.67
71057;BME280;58380;48.312;9.246;2023-03-14T16:41:12;92528.53;;;4.09;65.05
71057;BME280;58380;48.312;9.246;2023-03-14T16:43:43;92512.72;;;3.99;64.93
71057;BME280;58380;48.312;9.246;2023-03-14T16:46:16;92522.25;;;4.10;66.51
71057;BME280;58380;48.312;9.246;2023-03-14T16:48:43;92508.91;;;4.07;66.39
71057;BME280;58380;48.312;9.246;2023-03-14T16:51:09;92527.09;;;4.24;65.83
71057;BME280;58380;48.312;9.246;2023-03-14T16:53:35;92518.66;;;4.17;66.04
71057;BME280;58380;48.312;9.246;2023-03-14T16:56:00;92526.97;;;4.14;66.61
71057;BME280;58380;48.312;9.246;2023-03-14T16:58:26;92546.66;;;4.21;66.36
71057;BME280;58380;48.312;9.246;2023-03-14T17:00:52;92548.59;;;4.09;66.18
71057;BME280;58380;48.312;9.246;2023-03-14T17:03:18;92551.25;;;4.14;67.31
71057;BME280;58380;48.312;9.246;2023-03-14T17:05:44;92551.75;;;4.11;68.50
71057;BME280;58380;48.312;9.246;2023-03-14T17:08:11;92550.38;;;4.03;67.88
71057;BME280;58380;48.312;9.246;2023-03-14T17:10:36;92557.41;;;4.03;67.49
71057;BME280;58380;48.312;9.246;2023-03-14T17:13:02;92550.38;;;4.03;67.08
71057;BME280;58380;48.312;9.246;2023-03-14T17:15:27;92548.75;;;3.97;67.96
71057;BME280;58380;48.312;9.246;2023-03-14T17:17:53;92544.75;;;3.89;67.49
71057;BME280;58380;48.312;9.246;2023-03-14T17:20:18;92534.69;;;3.81;68.27
71057;BME280;58380;48.312;9.246;2023-03-14T17:22:44;92565.47;;;4.01;67.96
71057;BME280;58380;48.312;9.246;2023-03-14T17:25:09;92569.44;;;4.04;68.73
71057;BME280;58380;48.312;9.246;2023-03-14T17:27:34;92554.69;;;3.93;69.31
71057;BME280;58380;48.312;9.246;2023-03-14T17:30:01;92567.25;;;3.96;69.06
71057;BME280;58380;48.312;9.246;2023-03-14T17:32:28;92551.47;;;3.85;69.14
71057;BME280;58380;48.312;9.246;2023-03-14T17:34:54;92567.63;;;3.82;70.15
71057;BME280;58380;48.312;9.246;2023-03-14T17:37:19;92567.38;;;3.84;69.41
71057;BME280;58380;48.312;9.246;2023-03-14T17:39:44;92558.13;;;3.76;69.34
71057;BME280;58380;48.312;9.246;2023-03-14T17:42:10;92590.47;;;3.92;70.45
71057;BME280;58380;48.312;9.246;2023-03-14T17:44:35;92586.13;;;3.81;71.07
71057;BME280;58380;48.312;9.246;2023-03-14T17:47:01;92590.44;;;3.70;70.93
71057;BME280;58380;48.312;9.246;2023-03-14T17:49:26;92649.69;;;3.92;71.73
71057;BME280;58380;48.312;9.246;2023-03-14T17:51:52;92629.66;;;3.58;75.71
71057;BME280;58380;48.312;9.246;2023-03-14T17:54:18;92690.78;;;3.45;79.24
71057;BME280;58380;48.312;9.246;2023-03-14T17:56:43;92690.16;;;2.93;83.80
71057;BME280;58380;48.312;9.246;2023-03-14T17:59:09;92720.78;;;2.45;90.18
71057;BME280;58380;48.312;9.246;2023-03-14T18:01:35;92666.31;;;1.44;94.83
71057;BME280;58380;48.312;9.246;2023-03-14T18:04:01;92721.88;;;1.73;97.72
71057;BME280;58380;48.312;9.246;2023-03-14T18:06:26;92670.97;;;1.54;99.22
71057;BME280;58380;48.312;9.246;2023-03-14T18:08:55;92667.66;;;1.47;98.71
71057;BME280;58380;48.312;9.246;2023-03-14T18:11:21;92676.41;;;1.53;99.19
71057;BME280;58380;48.312;9.246;2023-03-14T18:13:47;92683.84;;;1.49;98.44
71057;BME280;58380;48.312;9.246;2023-03-14T18:16:13;92651.72;;;1.32;97.88
71057;BME280;58380;48.312;9.246;2023-03-14T18:18:40;92693.69;;;1.59;97.36
71057;BME280;58380;48.312;9.246;2023-03-14T18:21:06;92693.25;;;1.50;97.63
71057;BME280;58380;48.312;9.246;2023-03-14T18:23:32;92698.31;;;1.57;98.39
71057;BME280;58380;48.312;9.246;2023-03-14T18:25:58;92687.78;;;1.40;98.64
71057;BME280;58380;48.312;9.246;2023-03-14T18:28:25;92697.41;;;1.51;98.81
71057;BME280;58380;48.312;9.246;2023-03-14T18:30:53;92712.69;;;1.59;98.57
71057;BME280;58380;48.312;9.246;2023-03-14T18:33:24;92688.16;;;1.43;96.64
71057;BME280;58380;48.312;9.246;2023-03-14T18:35:50;92671.06;;;1.36;97.37
71057;BME280;58380;48.312;9.246;2023-03-14T18:38:16;92711.78;;;1.54;97.14
71057;BME280;58380;48.312;9.246;2023-03-14T18:40:42;92733.28;;;1.61;96.27
71057;BME280;58380;48.312;9.246;2023-03-14T18:43:07;92726.25;;;1.49;97.54
71057;BME280;58380;48.312;9.246;2023-03-14T18:45:33;92748.31;;;1.59;97.07
71057;BME280;58380;48.312;9.246;2023-03-14T18:47:58;92690.03;;;1.24;96.12
71057;BME280;58380;48.312;9.246;2023-03-14T18:50:24;92728.72;;;1.44;97.28
71057;BME280;58380;48.312;9.246;2023-03-14T18:52:49;92689.47;;;1.34;95.49
71057;BME280;58380;48.312;9.246;2023-03-14T18:55:15;92719.22;;;1.38;96.37
71057;BME280;58380;48.312;9.246;2023-03-14T18:57:40;92712.00;;;1.40;96.50
71057;BME280;58380;48.312;9.246;2023-03-14T19:00:06;92720.13;;;1.44;96.20
71057;BME280;58380;48.312;9.246;2023-03-14T19:02:34;92732.00;;;1.40;96.81
71057;BME280;58380;48.312;9.246;2023-03-14T19:05:00;92733.91;;;1.44;96.92
71057;BME280;58380;48.312;9.246;2023-03-14T19:09:55;92682.69;;;1.21;95.50
71057;BME280;58380;48.312;9.246;2023-03-14T19:12:20;92751.13;;;1.57;95.74
71057;BME280;58380;48.312;9.246;2023-03-14T19:14:45;92711.75;;;1.42;95.15
71057;BME280;58380;48.312;9.246;2023-03-14T19:17:11;92700.00;;;1.27;95.53
71057;BME280;58380;48.312;9.246;2023-03-14T19:19:36;92683.47;;;1.22;94.99
71057;BME280;58380;48.312;9.246;2023-03-14T19:22:02;92705.41;;;1.26;94.25
71057;BME280;58380;48.312;9.246;2023-03-14T19:24:27;92737.75;;;1.42;94.39
71057;BME280;58380;48.312;9.246;2023-03-14T19:26:53;92750.22;;;1.51;94.95
71057;BME280;58380;48.312;9.246;2023-03-14T19:29:18;92700.19;;;1.14;94.02
71057;BME280;58380;48.312;9.246;2023-03-14T19:31:44;92717.38;;;1.27;93.97
71057;BME280;58380;48.312;9.246;2023-03-14T19:34:09;92757.03;;;1.53;93.87
71057;BME280;58380;48.312;9.246;2023-03-14T19:36:36;92763.00;;;1.53;93.82
71057;BME280;58380;48.312;9.246;2023-03-14T19:39:04;92776.59;;;1.55;94.13
71057;BME280;58380;48.312;9.246;2023-03-14T19:41:32;92784.16;;;1.57;93.56
71057;BME280;58380;48.312;9.246;2023-03-14T19:43:58;92797.16;;;1.57;93.79
71057;BME280;58380;48.312;9.246;2023-03-14T19:46:24;92744.63;;;1.24;94.34
71057;BME280;58380;48.312;9.246;2023-03-14T19:48:50;92779.81;;;1.39;95.35
71057;BME280;58380;48.312;9.246;2023-03-14T19:51:18;92791.03;;;1.51;94.27
71057;BME280;58380;48.312;9.246;2023-03-14T19:53:44;92796.38;;;1.56;94.66
71057;BME280;58380;48.312;9.246;2023-03-14T19:56:10;92786.06;;;1.49;94.20
71057;BME280;58380;48.312;9.246;2023-03-14T19:58:36;92806.69;;;1.63;94.43
71057;BME280;58380;48.312;9.246;2023-03-14T20:01:03;92781.09;;;1.48;95.13
71057;BME280;58380;48.312;9.246;2023-03-14T20:03:31;92794.78;;;1.55;95.72
71057;BME280;58380;48.312;9.246;2023-03-14T20:05:57;92810.09;;;1.75;94.18
71057;BME280;58380;48.312;9.246;2023-03-14T20:08:23;92779.53;;;1.59;94.70
71057;BME280;58380;48.312;9.246;2023-03-14T20:10:49;92760.06;;;1.49;93.11
71057;BME280;58380;48.312;9.246;2023-03-14T20:13:15;92792.91;;;1.74;93.12
71057;BME280;58380;48.312;9.246;2023-03-14T20:15:40;92799.81;;;1.80;93.01
71057;BME280;58380;48.312;9.246;2023-03-14T20:18:06;92807.28;;;1.88;92.92
71057;BME280;58380;48.312;9.246;2023-03-14T20:20:32;92820.53;;;1.99;92.88
71057;BME280;58380;48.312;9.246;2023-03-14T20:22:57;92787.47;;;1.76;93.30
71057;BME280;58380;48.312;9.246;2023-03-14T20:25:23;92771.28;;;1.73;92.01
71057;BME280;58380;48.312;9.246;2023-03-14T20:27:49;92822.13;;;2.00;92.96
71057;BME280;58380;48.312;9.246;2023-03-14T20:30:17;92827.78;;;1.97;92.26
71057;BME280;58380;48.312;9.246;2023-03-14T20:32:46;92818.59;;;1.94;93.05
71057;BME280;58380;48.312;9.246;2023-03-14T20:35:14;92819.97;;;1.85;91.68
71057;BME280;58380;48.312;9.246;2023-03-14T20:37:49;92829.13;;;1.87;92.47
71057;BME280;58380;48.312;9.246;2023-03-14T20:40:16;92836.00;;;1.82;92.26
71057;BME280;58380;48.312;9.246;2023-03-14T20:42:43;92815.63;;;1.67;92.95
71057;BME280;58380;48.312;9.246;2023-03-14T20:45:08;92773.75;;;1.45;91.72
71057;BME280;58380;48.312;9.246;2023-03-14T20:47:35;92830.81;;;1.82;91.92
71057;BME280;58380;48.312;9.246;2023-03-14T20:50:00;92796.03;;;1.64;91.58
71057;BME280;58380;48.312;9.246;2023-03-14T20:52:27;92816.31;;;1.74;91.81
71057;BME280;58380;48.312;9.246;2023-03-14T20:54:53;92795.91;;;1.59;92.48
71057;BME280;58380;48.312;9.246;2023-03-14T20:57:18;92815.66;;;1.79;91.75
71057;BME280;58380;48.312;9.246;2023-03-14T20:59:44;92773.50;;;1.46;91.31
71057;BME280;58380;48.312;9.246;2023-03-14T21:02:10;92804.41;;;1.66;92.14
71057;BME280;58380;48.312;9.246;2023-03-14T21:04:36;92814.75;;;1.73;92.77
71057;BME280;58380;48.312;9.246;2023-03-14T21:07:02;92810.88;;;1.64;92.58
71057;BME280;58380;48.312;9.246;2023-03-14T21:09:27;92826.03;;;1.67;92.63
71057;BME280;58380;48.312;9.246;2023-03-14T21:11:53;92801.44;;;1.51;92.60
71057;BME280;58380;48.312;9.246;2023-03-14T21:14:18;92780.44;;;1.53;92.10
71057;BME280;58380;48.312;9.246;2023-03-14T21:16:50;92837.72;;;1.88;91.63
71057;BME280;58380;48.312;9.246;2023-03-14T21:19:20;92803.75;;;1.71;91.44
71057;BME280;58380;48.312;9.246;2023-03-14T21:21:46;92825.63;;;1.93;92.35
71057;BME280;58380;48.312;9.246;2023-03-14T21:24:11;92829.34;;;1.86;91.86
71057;BME280;58380;48.312;9.246;2023-03-14T21:26:39;92841.03;;;1.95;92.48